createdAt,value
2023-05-06T00:02:12.226Z,2.53
2023-05-06T00:04:41.081Z,4.50
2023-05-06T00:07:09.001Z,4.27
2023-05-06T00:09:36.905Z,2.93
2023-05-06T00:12:05.583Z,3.17
2023-05-06T00:14:34.893Z,4.07
2023-05-06T00:17:02.788Z,3.60
2023-05-06T00:19:30.695Z,4.53
2023-05-06T00:21:58.654Z,3.00
2023-05-06T00:24:26.594Z,4.13
2023-05-06T00:26:54.536Z,3.93
2023-05-06T00:29:22.554Z,5.37
2023-05-06T00:31:51.916Z,6.93
2023-05-06T00:34:19.888Z,4.03
2023-05-06T00:36:47.778Z,9.20
2023-05-06T00:39:16.369Z,3.70
2023-05-06T00:41:44.284Z,3.77
2023-05-06T00:44:12.208Z,2.80
2023-05-06T00:46:40.662Z,7.57
2023-05-06T00:49:09.985Z,3.00
2023-05-06T00:51:37.962Z,3.80
2023-05-06T00:54:06.524Z,6.07
2023-05-06T00:56:34.442Z,4.23
2023-05-06T00:59:02.411Z,4.50
2023-05-06T01:01:32.193Z,3.07
2023-05-06T01:04:00.323Z,4.47
2023-05-06T01:06:37.784Z,3.77
2023-05-06T01:09:11.675Z,3.77
2023-05-06T01:11:42.968Z,3.47
2023-05-06T01:14:15.972Z,5.77
2023-05-06T01:16:44.474Z,5.23
2023-05-06T01:19:19.390Z,3.60
2023-05-06T01:21:49.842Z,3.57
2023-05-06T01:24:19.107Z,2.70
2023-05-06T01:26:47.001Z,4.07
2023-05-06T01:29:15.049Z,4.13
2023-05-06T01:31:46.910Z,2.50
2023-05-06T01:34:17.222Z,3.20
2023-05-06T01:36:53.739Z,3.93
2023-05-06T01:39:27.538Z,5.33
2023-05-06T01:41:57.378Z,5.20
2023-05-06T01:44:26.475Z,3.57
2023-05-06T01:46:55.261Z,4.10
2023-05-06T01:49:23.779Z,3.90
2023-05-06T01:51:52.496Z,3.30
2023-05-06T01:54:20.575Z,4.60
2023-05-06T01:56:49.885Z,2.10
2023-05-06T01:59:17.774Z,3.17
2023-05-06T02:01:45.806Z,3.07
2023-05-06T02:04:13.796Z,5.43
2023-05-06T02:06:42.129Z,6.97
2023-05-06T02:09:10.074Z,3.33
2023-05-06T02:11:37.963Z,3.07
2023-05-06T02:14:07.243Z,2.67
2023-05-06T02:16:35.240Z,3.60
2023-05-06T02:19:03.403Z,4.03
2023-05-06T02:21:32.060Z,3.10
2023-05-06T02:23:59.961Z,2.63
2023-05-06T02:26:27.865Z,6.80
2023-05-06T02:28:55.811Z,3.60
2023-05-06T02:31:25.165Z,4.57
2023-05-06T02:33:53.077Z,3.33
2023-05-06T02:36:21.026Z,4.13
2023-05-06T02:38:48.932Z,3.47
2023-05-06T02:41:16.846Z,3.80
2023-05-06T02:43:44.772Z,3.50
2023-05-06T02:46:12.748Z,2.90
2023-05-06T02:48:42.050Z,2.60
2023-05-06T02:51:09.949Z,3.87
2023-05-06T02:53:37.873Z,2.67
2023-05-06T02:56:06.359Z,4.00
2023-05-06T02:58:34.258Z,3.07
2023-05-06T03:01:02.217Z,4.97
2023-05-06T03:03:30.140Z,3.97
2023-05-06T03:05:59.420Z,4.77
2023-05-06T03:08:27.357Z,3.73
2023-05-06T03:10:55.355Z,4.27
2023-05-06T03:13:23.378Z,4.00
2023-05-06T03:15:53.836Z,4.77
2023-05-06T03:18:21.928Z,4.17
2023-05-06T03:20:50.389Z,5.20
2023-05-06T03:23:19.698Z,3.17
2023-05-06T03:25:47.610Z,3.90
2023-05-06T03:28:15.519Z,4.17
2023-05-06T03:30:43.433Z,6.13
2023-05-06T03:33:11.355Z,3.23
2023-05-06T03:35:40.148Z,3.97
2023-05-06T03:38:08.193Z,3.17
2023-05-06T03:40:37.571Z,5.13
2023-05-06T03:43:05.493Z,3.47
2023-05-06T03:45:33.543Z,3.10
2023-05-06T03:48:01.509Z,3.43
2023-05-06T03:50:29.406Z,2.83
2023-05-06T03:52:57.336Z,3.43
2023-05-06T03:55:25.335Z,6.67
2023-05-06T03:57:54.657Z,3.93
2023-05-06T04:00:22.819Z,5.57
2023-05-06T04:02:50.791Z,3.60
2023-05-06T04:05:18.999Z,3.70
2023-05-06T04:07:47.006Z,2.97
2023-05-06T04:10:14.914Z,5.03
2023-05-06T04:12:42.861Z,3.57
2023-05-06T04:15:12.945Z,4.10
2023-05-06T04:17:41.121Z,4.57
2023-05-06T04:20:11.434Z,5.20
2023-05-06T04:22:39.623Z,3.97
2023-05-06T04:25:09.028Z,2.73
2023-05-06T04:27:37.214Z,4.13
2023-05-06T04:30:05.546Z,3.67
2023-05-06T04:32:35.142Z,4.87
2023-05-06T04:35:03.934Z,3.70
2023-05-06T04:37:31.836Z,4.07
2023-05-06T04:39:59.732Z,5.97
2023-05-06T04:42:27.650Z,3.27
2023-05-06T04:44:55.927Z,3.50
2023-05-06T04:47:23.864Z,2.83
2023-05-06T04:49:53.176Z,4.63
2023-05-06T04:52:21.160Z,3.47
2023-05-06T04:54:49.059Z,4.27
2023-05-06T04:57:16.959Z,3.93
2023-05-06T04:59:44.867Z,5.03
2023-05-06T05:02:13.056Z,5.13
2023-05-06T05:04:41.359Z,4.93
2023-05-06T05:07:10.789Z,5.83
2023-05-06T05:09:38.706Z,6.33
2023-05-06T05:12:07.096Z,4.23
2023-05-06T05:14:34.997Z,5.83
2023-05-06T05:17:02.983Z,4.03
2023-05-06T05:19:30.915Z,3.77
2023-05-06T05:21:58.836Z,5.37
2023-05-06T05:24:31.135Z,3.37
2023-05-06T05:26:59.073Z,3.70
2023-05-06T05:29:26.969Z,3.07
2023-05-06T05:31:54.829Z,5.57
2023-05-06T05:34:22.748Z,3.20
2023-05-06T05:36:50.638Z,3.33
2023-05-06T05:39:18.556Z,9.23
2023-05-06T05:41:47.802Z,5.30
2023-05-06T05:44:15.779Z,3.57
2023-05-06T05:46:44.078Z,5.97
2023-05-06T05:49:12.137Z,4.47
2023-05-06T05:51:40.049Z,7.73
2023-05-06T05:54:07.970Z,6.37
2023-05-06T05:56:36.045Z,5.83
2023-05-06T05:59:05.317Z,4.40
2023-05-06T06:01:33.221Z,4.43
2023-05-06T06:04:01.342Z,5.33
2023-05-06T06:06:29.471Z,5.10
2023-05-06T06:08:57.406Z,7.53
2023-05-06T06:11:26.920Z,4.37
2023-05-06T06:13:54.992Z,4.30
2023-05-06T06:16:24.470Z,4.40
2023-05-06T06:18:52.459Z,9.70
2023-05-06T06:21:20.395Z,7.53
2023-05-06T06:23:48.316Z,6.40
2023-05-06T06:26:16.236Z,4.43
2023-05-06T06:28:44.849Z,5.10
2023-05-06T06:31:12.963Z,3.93
2023-05-06T06:33:42.274Z,7.30
2023-05-06T06:36:10.719Z,7.97
2023-05-06T06:38:38.696Z,5.60
2023-05-06T06:41:06.704Z,5.60
2023-05-06T06:43:34.641Z,6.33
2023-05-06T06:46:02.657Z,6.40
2023-05-06T06:48:30.641Z,6.17
2023-05-06T06:50:59.966Z,5.97
2023-05-06T06:53:27.940Z,5.67
2023-05-06T06:55:55.846Z,5.67
2023-05-06T06:58:23.730Z,5.33
2023-05-06T07:00:51.701Z,6.20
2023-05-06T07:03:19.864Z,6.07
2023-05-06T07:05:47.817Z,8.53
2023-05-06T07:08:18.131Z,6.73
2023-05-06T07:10:46.044Z,8.50
2023-05-06T07:13:13.985Z,7.33
2023-05-06T07:15:41.942Z,7.97
2023-05-06T07:18:10.891Z,6.07
2023-05-06T07:20:38.921Z,11.23
2023-05-06T07:23:06.814Z,8.23
2023-05-06T07:25:36.083Z,6.23
2023-05-06T07:28:03.992Z,7.33
2023-05-06T07:30:31.939Z,5.33
2023-05-06T07:33:00.013Z,7.30
2023-05-06T07:35:28.115Z,5.00
2023-05-06T07:37:56.033Z,6.60
2023-05-06T07:40:24.043Z,11.80
2023-05-06T07:42:53.313Z,7.93
2023-05-06T07:45:23.493Z,8.03
2023-05-06T07:47:51.511Z,10.70
2023-05-06T07:50:19.547Z,7.47
2023-05-06T07:52:47.436Z,10.30
2023-05-06T07:55:15.334Z,8.90
2023-05-06T07:57:43.248Z,10.07
2023-05-06T08:00:13.455Z,10.90
2023-05-06T08:02:44.454Z,10.70
2023-05-06T08:05:13.024Z,11.20
2023-05-06T08:07:41.781Z,9.23
2023-05-06T08:10:10.684Z,11.90
2023-05-06T08:12:38.843Z,7.57
2023-05-06T08:15:08.175Z,12.90
2023-05-06T08:17:37.632Z,7.40
2023-05-06T08:20:06.266Z,10.00
2023-05-06T08:22:34.247Z,10.43
2023-05-06T08:25:02.270Z,9.90
2023-05-06T08:27:30.229Z,8.40
2023-05-06T08:29:58.118Z,8.50
2023-05-06T08:32:26.112Z,7.23
2023-05-06T08:34:56.080Z,13.27
2023-05-06T08:37:24.017Z,10.37
2023-05-06T08:39:51.936Z,8.17
2023-05-06T08:42:19.870Z,8.03
2023-05-06T08:44:48.557Z,9.17
2023-05-06T08:47:16.437Z,9.30
2023-05-06T08:49:44.363Z,6.43
2023-05-06T08:52:13.680Z,10.53
2023-05-06T08:54:42.463Z,9.53
2023-05-06T08:57:13.372Z,9.03
2023-05-06T08:59:41.629Z,8.90
2023-05-06T09:02:11.352Z,8.10
2023-05-06T09:04:39.730Z,7.60
2023-05-06T09:07:07.666Z,7.27
2023-05-06T09:09:36.992Z,7.83
2023-05-06T09:12:07.091Z,11.00
2023-05-06T09:14:35.035Z,9.10
2023-05-06T09:17:03.217Z,8.10
2023-05-06T09:19:31.244Z,11.27
2023-05-06T09:21:59.307Z,7.77
2023-05-06T09:24:27.438Z,6.93
2023-05-06T09:26:57.443Z,10.63
2023-05-06T09:29:25.344Z,9.43
2023-05-06T09:31:55.077Z,11.67
2023-05-06T09:34:23.431Z,7.73
2023-05-06T09:36:53.725Z,8.87
2023-05-06T09:39:26.832Z,6.77
2023-05-06T09:41:56.323Z,8.07
2023-05-06T09:44:26.091Z,6.77
2023-05-06T09:46:54.017Z,8.80
2023-05-06T09:49:21.937Z,12.60
2023-05-06T09:51:51.729Z,7.23
2023-05-06T09:54:19.697Z,6.07
2023-05-06T09:56:48.570Z,8.47
2023-05-06T09:59:18.685Z,8.17
2023-05-06T10:01:47.089Z,9.83
2023-05-06T10:04:16.793Z,8.83
2023-05-06T10:06:45.927Z,8.20
2023-05-06T10:09:14.687Z,9.47
2023-05-06T10:11:42.871Z,6.67
2023-05-06T10:14:11.158Z,9.03
2023-05-06T10:16:41.366Z,8.13
2023-05-06T10:19:09.644Z,12.77
2023-05-06T10:21:40.779Z,12.87
2023-05-06T10:24:12.490Z,11.87
2023-05-06T10:26:40.933Z,7.87
2023-05-06T10:29:11.016Z,9.77
2023-05-06T10:31:46.284Z,11.80
2023-05-06T10:34:14.240Z,12.17
2023-05-06T10:36:44.096Z,8.63
2023-05-06T10:39:14.304Z,8.40
2023-05-06T10:41:42.322Z,10.50
2023-05-06T10:44:10.316Z,12.17
2023-05-06T10:47:00.586Z,9.33
2023-05-06T10:49:29.170Z,8.37
2023-05-06T10:52:14.295Z,8.50
2023-05-06T10:54:49.628Z,7.73
2023-05-06T10:57:17.710Z,9.97
2023-05-06T10:59:48.935Z,8.53
2023-05-06T11:02:21.385Z,7.37
2023-05-06T11:05:01.139Z,9.83
2023-05-06T11:07:29.112Z,8.70
2023-05-06T11:09:58.734Z,13.90
2023-05-06T11:12:46.343Z,10.10
2023-05-06T11:15:36.425Z,9.50
2023-05-06T11:18:44.187Z,9.20
2023-05-06T11:21:40.162Z,8.83
2023-05-06T11:24:12.263Z,10.27
2023-05-06T11:26:44.256Z,7.87
2023-05-06T11:29:12.353Z,14.23
2023-05-06T11:31:42.159Z,10.00
2023-05-06T11:34:13.338Z,11.20
2023-05-06T11:36:49.287Z,11.13
2023-05-06T11:39:17.185Z,10.07
2023-05-06T11:41:45.153Z,9.57
2023-05-06T11:44:14.779Z,11.37
2023-05-06T11:46:45.055Z,9.17
2023-05-06T11:49:15.983Z,9.97
2023-05-06T11:51:43.880Z,8.73
2023-05-06T11:54:12.282Z,9.93
2023-05-06T11:56:45.923Z,11.13
2023-05-06T11:59:13.957Z,10.07
2023-05-06T12:01:45.966Z,15.00
2023-05-06T12:04:15.375Z,11.00
2023-05-06T12:06:43.339Z,12.70
2023-05-06T12:09:13.268Z,12.90
2023-05-06T12:11:43.138Z,12.73
2023-05-06T12:14:12.632Z,12.43
2023-05-06T12:16:40.912Z,12.07
2023-05-06T12:19:08.985Z,12.87
2023-05-06T12:21:40.325Z,11.60
2023-05-06T12:24:08.416Z,14.43
2023-05-06T12:26:47.236Z,16.70
2023-05-06T12:29:19.224Z,13.40
2023-05-06T12:31:48.313Z,14.47
2023-05-06T12:34:17.918Z,13.80
2023-05-06T12:36:48.182Z,14.00
2023-05-06T12:39:17.527Z,14.30
2023-05-06T12:41:46.354Z,12.13
2023-05-06T12:44:34.057Z,13.40
2023-05-06T12:47:03.402Z,14.87
2023-05-06T12:49:46.904Z,17.33
2023-05-06T12:52:16.730Z,13.97
2023-05-06T12:54:44.664Z,14.80
2023-05-06T12:57:12.802Z,12.87
2023-05-06T12:59:40.751Z,12.70
2023-05-06T13:02:08.704Z,12.13
2023-05-06T13:04:36.640Z,16.23
2023-05-06T13:07:04.581Z,14.17
2023-05-06T13:09:34.107Z,12.57
2023-05-06T13:12:02.438Z,13.50
2023-05-06T13:14:30.323Z,13.63
2023-05-06T13:17:01.024Z,13.47
2023-05-06T13:19:32.737Z,11.10
2023-05-06T13:22:01.302Z,11.77
2023-05-06T13:24:29.544Z,14.50
2023-05-06T13:27:00.881Z,16.27
2023-05-06T13:29:29.600Z,13.80
2023-05-06T13:31:57.880Z,14.37
2023-05-06T13:34:26.082Z,13.00
2023-05-06T13:36:54.577Z,14.70
2023-05-06T13:39:22.729Z,13.87
2023-05-06T13:41:51.093Z,12.53
2023-05-06T13:44:21.475Z,14.30
2023-05-06T13:46:49.722Z,18.90
2023-05-06T13:49:17.929Z,13.13
2023-05-06T13:51:45.850Z,14.83
2023-05-06T13:54:13.897Z,14.33
2023-05-06T13:56:41.803Z,13.77
2023-05-06T13:59:11.785Z,13.77
2023-05-06T14:01:41.630Z,16.07
2023-05-06T14:04:09.971Z,13.10
2023-05-06T14:06:38.757Z,12.70
2023-05-06T14:09:06.761Z,12.40
2023-05-06T14:11:34.671Z,15.90
2023-05-06T14:14:02.713Z,11.40
2023-05-06T14:16:30.697Z,13.07
2023-05-06T14:19:01.077Z,13.37
2023-05-06T14:21:29.001Z,16.07
2023-05-06T14:23:57.008Z,11.60
2023-05-06T14:26:25.131Z,11.17
2023-05-06T14:28:53.483Z,14.03
2023-05-06T14:31:21.491Z,11.67
2023-05-06T14:33:49.411Z,11.17
2023-05-06T14:36:20.856Z,13.07
2023-05-06T14:38:48.814Z,12.33
2023-05-06T14:41:16.713Z,10.93
2023-05-06T14:43:44.744Z,11.80
2023-05-06T14:46:14.557Z,11.23
2023-05-06T14:48:43.385Z,12.27
2023-05-06T14:51:11.357Z,14.73
2023-05-06T14:53:40.649Z,14.77
2023-05-06T14:56:10.504Z,11.60
2023-05-06T14:58:39.254Z,12.00
2023-05-06T15:01:07.311Z,11.50
2023-05-06T15:03:36.341Z,12.47
2023-05-06T15:06:04.538Z,11.90
2023-05-06T15:08:32.687Z,13.00
2023-05-06T15:11:04.103Z,11.67
2023-05-06T15:13:32.340Z,9.83
2023-05-06T15:16:00.317Z,10.77
2023-05-06T15:18:28.223Z,8.53
2023-05-06T15:20:58.667Z,9.43
2023-05-06T15:23:26.644Z,9.80
2023-05-06T15:25:54.639Z,9.90
2023-05-06T15:28:24.796Z,9.93
2023-05-06T15:30:52.814Z,11.47
2023-05-06T15:33:20.818Z,11.33
2023-05-06T15:35:48.693Z,10.63
2023-05-06T15:38:16.573Z,11.43
2023-05-06T15:40:50.943Z,11.10
2023-05-06T15:43:23.611Z,10.53
2023-05-06T15:45:53.666Z,10.87
2023-05-06T15:48:24.355Z,15.17
2023-05-06T15:50:52.267Z,9.73
2023-05-06T15:53:20.306Z,13.17
2023-05-06T15:55:56.643Z,11.07
2023-05-06T15:58:25.412Z,12.17
2023-05-06T16:00:54.745Z,12.30
2023-05-06T16:03:22.780Z,12.53
2023-05-06T16:05:50.879Z,11.50
2023-05-06T16:08:18.793Z,10.93
2023-05-06T16:10:46.801Z,13.30
2023-05-06T16:13:14.838Z,12.73
2023-05-06T16:15:42.882Z,13.07
2023-05-06T16:18:12.374Z,11.77
2023-05-06T16:20:40.662Z,13.70
2023-05-06T16:23:08.613Z,13.63
2023-05-06T16:25:38.238Z,10.40
2023-05-06T16:28:06.636Z,10.07
2023-05-06T16:30:34.526Z,12.97
2023-05-06T16:33:02.490Z,9.17
2023-05-06T16:35:31.961Z,10.00
2023-05-06T16:37:59.975Z,11.20
2023-05-06T16:40:28.750Z,10.73
2023-05-06T16:42:56.732Z,12.87
2023-05-06T16:45:24.666Z,9.40
2023-05-06T16:47:52.834Z,10.30
2023-05-06T16:50:21.001Z,8.63
2023-05-06T16:52:50.281Z,10.87
2023-05-06T16:55:18.424Z,11.17
2023-05-06T16:57:46.298Z,9.23
2023-05-06T17:00:16.527Z,8.70
2023-05-06T17:02:44.513Z,9.97
2023-05-06T17:05:12.482Z,8.57
2023-05-06T17:07:40.397Z,8.40
2023-05-06T17:10:10.929Z,7.83
2023-05-06T17:12:39.266Z,9.83
2023-05-06T17:15:08.491Z,7.93
2023-05-06T17:17:36.468Z,9.10
2023-05-06T17:20:05.311Z,8.53
2023-05-06T17:22:33.226Z,7.53
2023-05-06T17:25:01.174Z,8.17
2023-05-06T17:27:30.603Z,7.93
2023-05-06T17:29:58.504Z,8.77
2023-05-06T17:32:26.456Z,9.33
2023-05-06T17:34:54.423Z,12.13
2023-05-06T17:37:22.304Z,10.77
2023-05-06T17:39:51.021Z,10.27
2023-05-06T17:42:18.948Z,8.27
2023-05-06T17:44:48.353Z,9.37
2023-05-06T17:47:17.497Z,9.13
2023-05-06T17:49:45.703Z,10.60
2023-05-06T17:52:13.629Z,9.47
2023-05-06T17:54:41.520Z,12.83
2023-05-06T17:57:09.435Z,10.67
2023-05-06T17:59:37.559Z,12.13
2023-05-06T18:02:08.482Z,10.13
2023-05-06T18:04:36.563Z,9.80
2023-05-06T18:07:04.498Z,11.57
2023-05-06T18:09:32.806Z,10.23
2023-05-06T18:12:01.060Z,10.50
2023-05-06T18:14:29.046Z,10.07
2023-05-06T18:16:57.639Z,9.00
2023-05-06T18:19:27.165Z,10.67
2023-05-06T18:21:55.061Z,9.53
2023-05-06T18:24:23.416Z,9.97
2023-05-06T18:26:51.324Z,11.63
2023-05-06T18:29:19.240Z,8.67
2023-05-06T18:31:47.245Z,9.83
2023-05-06T18:34:15.334Z,11.37
2023-05-06T18:36:44.616Z,9.80
2023-05-06T18:39:12.504Z,13.43
2023-05-06T18:41:41.346Z,7.63
2023-05-06T18:44:09.222Z,9.67
2023-05-06T18:46:37.171Z,12.63
2023-05-06T18:49:05.051Z,7.83
2023-05-06T18:51:33.001Z,11.27
2023-05-06T18:54:02.304Z,11.97
2023-05-06T18:56:30.407Z,10.33
2023-05-06T18:58:58.346Z,10.43
2023-05-06T19:01:26.618Z,8.23
2023-05-06T19:03:54.695Z,11.00
2023-05-06T19:06:22.597Z,10.33
2023-05-06T19:08:50.797Z,9.37
2023-05-06T19:11:20.130Z,10.23
2023-05-06T19:13:48.012Z,11.13
2023-05-06T19:16:15.905Z,9.70
2023-05-06T19:18:43.863Z,11.80
2023-05-06T19:21:12.253Z,10.40
2023-05-06T19:23:40.297Z,14.60
2023-05-06T19:26:10.935Z,12.00
2023-05-06T19:28:41.038Z,10.40
2023-05-06T19:31:09.518Z,10.20
2023-05-06T19:33:37.588Z,10.77
2023-05-06T19:36:06.313Z,13.53
2023-05-06T19:38:34.690Z,11.17
2023-05-06T19:41:02.646Z,9.47
2023-05-06T19:43:30.604Z,10.77
2023-05-06T19:45:59.967Z,16.37
2023-05-06T19:48:27.859Z,11.40
2023-05-06T19:50:55.774Z,13.20
2023-05-06T19:53:24.110Z,15.63
2023-05-06T19:55:52.112Z,12.83
2023-05-06T19:58:20.331Z,12.27
2023-05-06T20:00:48.283Z,12.13
2023-05-06T20:03:18.044Z,11.27
2023-05-06T20:05:46.084Z,9.27
2023-05-06T20:08:14.008Z,14.67
2023-05-06T20:10:41.891Z,12.70
2023-05-06T20:13:27.915Z,11.93
2023-05-06T20:15:57.398Z,9.47
2023-05-06T20:18:27.252Z,10.37
2023-05-06T20:20:55.165Z,13.73
2023-05-06T20:23:24.959Z,12.73
2023-05-06T20:25:53.178Z,9.63
2023-05-06T20:28:21.191Z,10.97
2023-05-06T20:30:49.230Z,11.27
2023-05-06T20:33:17.161Z,12.63
2023-05-06T20:35:46.785Z,9.17
2023-05-06T20:38:16.973Z,11.23
2023-05-06T20:40:44.918Z,11.33
2023-05-06T20:43:12.809Z,9.90
2023-05-06T20:45:40.858Z,11.37
2023-05-06T20:48:09.005Z,8.33
2023-05-06T20:50:37.162Z,11.73
2023-05-06T20:53:06.492Z,9.00
2023-05-06T20:55:34.445Z,10.60
2023-05-06T20:58:02.328Z,7.67
2023-05-06T21:00:30.272Z,8.47
2023-05-06T21:02:58.290Z,8.73
2023-05-06T21:05:26.453Z,9.60
2023-05-06T21:07:54.440Z,8.90
2023-05-06T21:10:23.733Z,8.77
2023-05-06T21:12:51.940Z,11.23
2023-05-06T21:15:20.364Z,8.27
2023-05-06T21:17:48.408Z,8.37
2023-05-06T21:20:16.655Z,6.77
2023-05-06T21:22:44.584Z,9.60
2023-05-06T21:25:13.625Z,10.63
2023-05-06T21:27:43.113Z,8.87
2023-05-06T21:30:11.621Z,9.23
2023-05-06T21:32:39.560Z,11.70
2023-05-06T21:35:08.453Z,8.80
2023-05-06T21:37:36.689Z,8.40
2023-05-06T21:40:05.172Z,7.53
2023-05-06T21:42:33.077Z,6.70
2023-05-06T21:45:02.437Z,8.50
2023-05-06T21:47:30.429Z,7.83
2023-05-06T21:49:58.416Z,6.70
2023-05-06T21:52:26.445Z,5.63
2023-05-06T21:54:54.768Z,6.77
2023-05-06T21:57:22.677Z,7.40
2023-05-06T21:59:51.807Z,10.70
2023-05-06T22:02:21.181Z,6.50
2023-05-06T22:04:49.193Z,8.07
2023-05-06T22:07:17.096Z,7.57
2023-05-06T22:09:45.086Z,7.37
2023-05-06T22:12:13.302Z,6.20
2023-05-06T22:14:41.957Z,7.77
2023-05-06T22:17:10.595Z,6.73
2023-05-06T22:19:41.848Z,8.30
2023-05-06T22:22:10.147Z,7.20
2023-05-06T22:24:38.069Z,6.17
2023-05-06T22:27:05.981Z,7.57
2023-05-06T22:29:35.048Z,8.93
2023-05-06T22:32:03.336Z,10.50
2023-05-06T22:34:31.417Z,6.63
2023-05-06T22:37:01.168Z,7.20
2023-05-06T22:39:29.642Z,8.33
2023-05-06T22:41:57.589Z,8.57
2023-05-06T22:44:25.482Z,9.07
2023-05-06T22:46:53.380Z,8.40
2023-05-06T22:49:21.271Z,6.47
2023-05-06T22:51:49.209Z,8.37
2023-05-06T22:54:18.506Z,7.33
2023-05-06T22:56:46.436Z,7.23
2023-05-06T22:59:14.348Z,7.33
2023-05-06T23:01:42.481Z,5.83
2023-05-06T23:04:10.825Z,6.57
2023-05-06T23:06:40.017Z,7.30
2023-05-06T23:09:08.012Z,6.87
2023-05-06T23:11:37.328Z,8.77
2023-05-06T23:14:06.629Z,6.90
2023-05-06T23:16:34.738Z,6.57
2023-05-06T23:19:02.669Z,8.37
2023-05-06T23:21:30.578Z,7.33
2023-05-06T23:23:58.503Z,7.07
2023-05-06T23:26:26.713Z,7.43
2023-05-06T23:28:56.072Z,6.60
2023-05-06T23:31:24.061Z,6.70
2023-05-06T23:33:51.989Z,8.97
2023-05-06T23:36:19.967Z,9.00
2023-05-06T23:38:47.853Z,6.07
2023-05-06T23:41:15.752Z,6.47
2023-05-06T23:43:43.642Z,5.97
2023-05-06T23:46:12.993Z,7.77
2023-05-06T23:48:40.909Z,5.63
2023-05-06T23:51:08.799Z,6.40
2023-05-06T23:53:37.333Z,7.20
2023-05-06T23:56:05.773Z,6.60
2023-05-06T23:58:33.706Z,5.90
